createdAt,value
2018-12-20T00:01:41.850Z,7.50
2018-12-20T00:04:10.177Z,7.60
2018-12-20T00:06:38.469Z,7.60
2018-12-20T00:09:07.856Z,7.60
2018-12-20T00:11:36.476Z,7.70
2018-12-20T00:14:05.043Z,7.70
2018-12-20T00:16:33.422Z,7.70
2018-12-20T00:19:01.817Z,7.70
2018-12-20T00:21:30.215Z,7.70
2018-12-20T00:23:58.623Z,7.70
2018-12-20T00:26:27.053Z,7.60
2018-12-20T00:28:55.475Z,7.60
2018-12-20T00:31:23.882Z,7.70
2018-12-20T00:33:52.351Z,7.60
2018-12-20T00:36:20.810Z,7.70
2018-12-20T00:38:49.177Z,7.60
2018-12-20T00:41:17.495Z,7.60
2018-12-20T00:43:45.734Z,7.50
2018-12-20T00:46:14.157Z,7.50
2018-12-20T00:48:42.634Z,7.40
2018-12-20T00:51:11.007Z,7.30
2018-12-20T00:53:39.347Z,7.30
2018-12-20T00:56:07.742Z,7.30
2018-12-20T00:58:36.019Z,7.30
2018-12-20T01:01:04.325Z,7.30
2018-12-20T01:03:32.614Z,7.20
2018-12-20T01:06:00.865Z,7.10
2018-12-20T01:08:29.188Z,7.10
2018-12-20T01:10:57.484Z,7.10
2018-12-20T01:13:25.871Z,7.10
2018-12-20T01:15:54.307Z,7.10
2018-12-20T01:18:22.656Z,7.00
2018-12-20T01:20:51.041Z,7.00
2018-12-20T01:23:19.313Z,7.00
2018-12-20T01:25:47.553Z,6.90
2018-12-20T01:28:15.845Z,6.90
2018-12-20T01:30:44.238Z,6.90
2018-12-20T01:33:12.657Z,6.90
2018-12-20T01:35:41.274Z,6.90
2018-12-20T01:38:09.810Z,6.80
2018-12-20T01:40:38.300Z,6.80
2018-12-20T01:43:06.610Z,6.80
2018-12-20T01:45:35.078Z,6.90
2018-12-20T01:48:03.571Z,6.80
2018-12-20T01:50:31.840Z,6.80
2018-12-20T01:53:00.212Z,6.90
2018-12-20T01:55:28.697Z,6.90
2018-12-20T01:57:57.068Z,6.90
2018-12-20T02:00:25.424Z,6.90
2018-12-20T02:02:53.867Z,6.90
2018-12-20T02:05:22.206Z,6.90
2018-12-20T02:07:50.520Z,6.90
2018-12-20T02:10:18.939Z,6.80
2018-12-20T02:12:47.470Z,6.90
2018-12-20T02:15:15.974Z,6.90
2018-12-20T02:17:44.443Z,6.90
2018-12-20T02:20:12.724Z,7.00
2018-12-20T02:22:41.178Z,7.00
2018-12-20T02:25:09.568Z,7.00
2018-12-20T02:27:37.864Z,7.00
2018-12-20T02:30:07.854Z,7.00
2018-12-20T02:32:36.312Z,7.00
2018-12-20T02:35:04.703Z,7.00
2018-12-20T02:37:33.318Z,7.00
2018-12-20T02:40:01.843Z,7.00
2018-12-20T02:42:30.385Z,6.90
2018-12-20T02:44:58.798Z,7.00
2018-12-20T02:47:30.128Z,6.90
2018-12-20T02:49:58.444Z,7.00
2018-12-20T02:52:26.685Z,7.00
2018-12-20T02:54:55.196Z,7.00
2018-12-20T02:57:23.528Z,7.00
2018-12-20T02:59:52.019Z,7.00
2018-12-20T03:02:20.344Z,7.00
2018-12-20T03:04:48.672Z,7.00
2018-12-20T03:07:17.023Z,7.00
2018-12-20T03:09:45.341Z,7.00
2018-12-20T03:12:13.685Z,7.00
2018-12-20T03:14:42.012Z,7.00
2018-12-20T03:17:10.331Z,7.00
2018-12-20T03:19:38.746Z,7.00
2018-12-20T03:22:07.376Z,7.00
2018-12-20T03:24:36.120Z,7.00
2018-12-20T03:27:04.798Z,7.00
2018-12-20T03:29:33.109Z,7.10
2018-12-20T03:32:01.500Z,7.00
2018-12-20T03:34:29.856Z,6.90
2018-12-20T03:36:58.481Z,7.00
2018-12-20T03:39:26.901Z,6.90
2018-12-20T03:41:55.480Z,6.90
2018-12-20T03:44:24.053Z,6.90
2018-12-20T03:46:52.456Z,6.90
2018-12-20T03:49:20.748Z,6.90
2018-12-20T03:51:49.214Z,6.90
2018-12-20T03:54:17.737Z,7.00
2018-12-20T03:56:46.056Z,7.10
2018-12-20T03:59:14.627Z,7.10
2018-12-20T04:01:43.139Z,7.10
2018-12-20T04:04:11.497Z,7.10
2018-12-20T04:06:39.996Z,7.10
2018-12-20T04:09:08.571Z,7.10
2018-12-20T04:11:37.094Z,7.10
2018-12-20T04:14:05.707Z,7.20
2018-12-20T04:16:34.153Z,7.20
2018-12-20T04:19:02.585Z,7.30
2018-12-20T04:21:31.163Z,7.30
2018-12-20T04:23:59.460Z,7.30
2018-12-20T04:26:27.998Z,7.30
2018-12-20T04:28:56.714Z,7.30
2018-12-20T04:31:25.345Z,7.30
2018-12-20T04:33:53.987Z,7.40
2018-12-20T04:36:22.339Z,7.40
2018-12-20T04:38:50.642Z,7.40
2018-12-20T04:41:19.158Z,7.30
2018-12-20T04:43:47.662Z,7.40
2018-12-20T04:46:16.299Z,7.40
2018-12-20T04:48:44.710Z,7.40
2018-12-20T04:51:13.438Z,7.40
2018-12-20T04:53:42.115Z,7.40
2018-12-20T04:56:10.610Z,7.40
2018-12-20T04:58:38.996Z,7.50
2018-12-20T05:01:07.374Z,7.40
2018-12-20T05:03:36.046Z,7.40
2018-12-20T05:06:04.436Z,7.40
2018-12-20T05:08:32.843Z,7.50
2018-12-20T05:11:01.241Z,7.40
2018-12-20T05:13:29.535Z,7.40
2018-12-20T05:15:57.927Z,7.50
2018-12-20T05:18:26.232Z,7.50
2018-12-20T05:20:54.605Z,7.50
2018-12-20T05:23:23.096Z,7.50
2018-12-20T05:25:51.591Z,7.50
2018-12-20T05:28:20.130Z,7.60
2018-12-20T05:30:48.545Z,7.60
2018-12-20T05:33:16.960Z,7.60
2018-12-20T05:35:45.291Z,7.60
2018-12-20T05:38:13.741Z,7.60
2018-12-20T05:40:42.491Z,7.60
2018-12-20T05:43:10.959Z,7.70
2018-12-20T05:45:39.362Z,7.70
2018-12-20T05:48:07.864Z,7.70
2018-12-20T05:50:36.356Z,7.70
2018-12-20T05:53:04.592Z,7.70
2018-12-20T05:55:32.907Z,7.80
2018-12-20T05:58:01.228Z,8.00
2018-12-20T06:00:29.538Z,8.00
2018-12-20T06:02:57.881Z,8.00
2018-12-20T06:05:26.472Z,7.90
2018-12-20T06:07:55.103Z,7.90
2018-12-20T06:10:23.619Z,7.90
2018-12-20T06:12:52.162Z,7.90
2018-12-20T06:15:20.505Z,7.90
2018-12-20T06:17:48.932Z,7.90
2018-12-20T06:20:17.381Z,8.00
2018-12-20T06:22:45.714Z,8.00
2018-12-20T06:25:14.072Z,8.00
2018-12-20T06:27:42.457Z,8.00
2018-12-20T06:30:10.768Z,8.00
2018-12-20T06:32:39.130Z,8.00
2018-12-20T06:35:07.445Z,8.00
2018-12-20T06:37:35.721Z,8.00
2018-12-20T06:40:04.026Z,8.00
2018-12-20T06:42:32.303Z,8.00
2018-12-20T06:45:00.562Z,8.00
2018-12-20T06:47:28.880Z,8.00
2018-12-20T06:49:57.140Z,8.00
2018-12-20T06:52:25.394Z,8.00
2018-12-20T06:54:53.735Z,8.00
2018-12-20T06:57:22.008Z,8.00
2018-12-20T06:59:50.301Z,7.90
2018-12-20T07:02:18.580Z,8.00
2018-12-20T07:04:46.860Z,8.00
2018-12-20T07:07:15.234Z,8.00
2018-12-20T07:09:43.510Z,8.00
2018-12-20T07:12:11.849Z,8.10
2018-12-20T07:14:40.128Z,8.10
2018-12-20T07:17:08.388Z,8.10
2018-12-20T07:19:36.625Z,8.00
2018-12-20T07:22:04.923Z,8.00
2018-12-20T07:24:33.233Z,8.00
2018-12-20T07:27:01.687Z,8.00
2018-12-20T07:29:30.003Z,8.00
2018-12-20T07:31:58.325Z,8.00
2018-12-20T07:34:26.594Z,8.10
2018-12-20T07:36:54.914Z,8.10
2018-12-20T07:39:23.195Z,8.10
2018-12-20T07:41:51.469Z,8.00
2018-12-20T07:44:19.810Z,8.00
2018-12-20T07:46:48.099Z,8.00
2018-12-20T07:49:16.409Z,8.00
2018-12-20T07:51:44.706Z,8.00
2018-12-20T07:54:13.080Z,8.10
2018-12-20T07:56:41.502Z,8.10
2018-12-20T07:59:09.803Z,8.00
2018-12-20T08:01:38.100Z,8.00
2018-12-20T08:04:06.521Z,8.00
2018-12-20T08:06:34.817Z,8.00
2018-12-20T08:09:04.009Z,7.90
2018-12-20T08:11:32.262Z,7.90
2018-12-20T08:14:00.583Z,7.90
2018-12-20T08:16:28.845Z,7.90
2018-12-20T08:18:57.162Z,8.00
2018-12-20T08:21:25.454Z,8.00
2018-12-20T08:24:00.454Z,8.00
2018-12-20T08:26:28.772Z,8.00
2018-12-20T08:28:57.072Z,8.00
2018-12-20T08:31:25.380Z,8.10
2018-12-20T08:33:53.678Z,8.10
2018-12-20T08:36:22.004Z,8.10
2018-12-20T08:38:50.387Z,8.20
2018-12-20T08:41:18.810Z,8.20
2018-12-20T08:43:47.130Z,8.30
2018-12-20T08:46:15.460Z,8.20
2018-12-20T08:48:43.800Z,8.20
2018-12-20T08:51:12.063Z,8.20
2018-12-20T08:53:40.380Z,8.20
2018-12-20T08:56:08.641Z,8.20
2018-12-20T08:58:36.910Z,8.20
2018-12-20T09:01:05.182Z,8.20
2018-12-20T09:03:33.547Z,8.20
2018-12-20T09:06:01.905Z,8.20
2018-12-20T09:08:30.248Z,8.20
2018-12-20T09:10:58.526Z,8.20
2018-12-20T09:13:26.897Z,8.20
2018-12-20T09:15:55.193Z,8.20
2018-12-20T09:18:23.449Z,8.20
2018-12-20T09:20:51.739Z,8.30
2018-12-20T09:23:20.010Z,8.30
2018-12-20T09:25:48.317Z,8.40
2018-12-20T09:28:16.626Z,8.40
2018-12-20T09:30:44.925Z,8.30
2018-12-20T09:33:13.179Z,8.30
2018-12-20T09:35:41.513Z,8.30
2018-12-20T09:38:09.845Z,8.40
2018-12-20T09:40:38.166Z,8.40
2018-12-20T09:43:06.444Z,8.50
2018-12-20T09:45:34.770Z,8.50
2018-12-20T09:48:06.211Z,8.50
2018-12-20T09:50:35.122Z,8.50
2018-12-20T09:53:03.389Z,8.60
2018-12-20T09:55:31.746Z,8.60
2018-12-20T09:58:00.044Z,8.70
2018-12-20T10:00:28.326Z,8.70
2018-12-20T10:02:56.754Z,8.70
2018-12-20T10:05:25.080Z,8.80
2018-12-20T10:07:53.314Z,8.80
2018-12-20T10:10:21.623Z,8.90
2018-12-20T10:12:49.858Z,8.90
2018-12-20T10:15:18.133Z,8.80
2018-12-20T10:17:46.392Z,8.90
2018-12-20T10:20:15.678Z,8.90
2018-12-20T10:22:43.953Z,8.90
2018-12-20T10:25:12.300Z,9.00
2018-12-20T10:27:40.568Z,9.00
2018-12-20T10:30:09.624Z,9.10
2018-12-20T10:32:37.884Z,9.10
2018-12-20T10:35:06.259Z,9.30
2018-12-20T10:37:34.566Z,9.30
2018-12-20T10:40:02.846Z,9.30
2018-12-20T10:42:31.158Z,9.30
2018-12-20T10:44:59.470Z,9.20
2018-12-20T10:47:29.504Z,9.20
2018-12-20T10:49:58.143Z,9.30
2018-12-20T10:52:26.407Z,9.20
2018-12-20T10:54:54.731Z,9.20
2018-12-20T10:57:23.006Z,9.10
2018-12-20T10:59:51.309Z,9.10
2018-12-20T11:02:25.049Z,9.10
2018-12-20T11:04:59.078Z,9.10
2018-12-20T11:07:32.740Z,9.20
2018-12-20T11:10:06.500Z,9.10
2018-12-20T11:12:40.002Z,9.10
2018-12-20T11:15:08.306Z,9.10
2018-12-20T11:17:37.519Z,9.10
2018-12-20T11:20:06.308Z,9.10
2018-12-20T11:22:34.582Z,9.10
2018-12-20T11:25:02.888Z,9.10
2018-12-20T11:27:31.218Z,9.10
2018-12-20T11:29:59.533Z,9.10
2018-12-20T11:32:27.846Z,9.10
2018-12-20T11:34:56.119Z,9.20
2018-12-20T11:37:24.464Z,9.30
2018-12-20T11:39:59.342Z,9.30
2018-12-20T11:42:23.312Z,9.30
2018-12-20T11:44:51.598Z,9.30
2018-12-20T11:52:19.353Z,9.20
2018-12-20T11:54:47.634Z,9.10
2018-12-20T11:57:15.876Z,9.10
2018-12-20T11:59:44.137Z,9.10
2018-12-20T12:02:12.406Z,9.10
2018-12-20T12:04:40.719Z,9.20
2018-12-20T12:07:08.952Z,9.20
2018-12-20T12:09:37.207Z,9.30
2018-12-20T12:12:05.480Z,9.30
2018-12-20T12:14:33.839Z,9.30
2018-12-20T12:17:02.110Z,9.20
2018-12-20T12:19:30.497Z,9.10
2018-12-20T12:21:58.738Z,9.20
2018-12-20T12:24:26.994Z,9.10
2018-12-20T12:26:55.264Z,9.20
2018-12-20T12:29:23.561Z,9.10
2018-12-20T12:31:51.907Z,9.20
2018-12-20T12:34:20.243Z,9.20
2018-12-20T12:36:48.541Z,9.20
2018-12-20T12:39:16.813Z,9.20
2018-12-20T12:41:45.122Z,9.20
2018-12-20T12:44:13.363Z,9.20
2018-12-20T12:46:41.634Z,9.20
2018-12-20T12:49:09.909Z,9.20
2018-12-20T12:51:38.225Z,9.30
2018-12-20T12:54:06.566Z,9.30
2018-12-20T12:56:34.844Z,9.30
2018-12-20T12:59:03.155Z,9.30
2018-12-20T13:01:31.534Z,9.30
2018-12-20T13:03:59.843Z,9.30
2018-12-20T13:06:28.198Z,9.30
2018-12-20T13:08:56.530Z,9.30
2018-12-20T13:11:24.806Z,9.30
2018-12-20T13:13:53.179Z,9.20
2018-12-20T13:16:21.430Z,9.20
2018-12-20T13:18:53.126Z,9.20
2018-12-20T13:21:21.498Z,9.20
2018-12-20T13:23:49.784Z,9.20
2018-12-20T13:26:18.049Z,9.10
2018-12-20T13:28:46.359Z,9.20
2018-12-20T13:31:16.218Z,9.20
2018-12-20T13:33:44.549Z,9.20
2018-12-20T13:36:12.803Z,9.20
2018-12-20T13:38:41.082Z,9.10
2018-12-20T13:41:09.463Z,9.10
2018-12-20T13:43:37.755Z,9.00
2018-12-20T13:46:06.116Z,8.90
2018-12-20T13:48:34.438Z,8.90
2018-12-20T13:51:02.764Z,8.90
2018-12-20T13:53:31.139Z,8.90
2018-12-20T13:55:59.448Z,8.90
2018-12-20T13:58:27.773Z,8.80
2018-12-20T14:00:56.035Z,8.80
2018-12-20T14:03:24.412Z,8.70
2018-12-20T14:05:52.752Z,8.70
2018-12-20T14:08:21.118Z,8.70
2018-12-20T14:10:49.446Z,8.70
2018-12-20T14:13:17.704Z,8.80
2018-12-20T14:15:46.076Z,8.80
2018-12-20T14:18:14.414Z,8.70
2018-12-20T14:20:42.849Z,8.70
2018-12-20T14:23:11.273Z,8.70
2018-12-20T14:25:39.617Z,8.70
2018-12-20T14:28:07.873Z,8.70
2018-12-20T14:30:36.143Z,8.70
2018-12-20T14:33:04.412Z,8.60
2018-12-20T14:35:32.684Z,8.60
2018-12-20T14:38:00.985Z,8.60
2018-12-20T14:40:29.269Z,8.50
2018-12-20T14:42:57.589Z,8.50
2018-12-20T14:45:25.850Z,8.50
2018-12-20T14:47:54.155Z,8.50
2018-12-20T14:50:22.582Z,8.50
2018-12-20T14:52:51.030Z,8.50
2018-12-20T14:55:19.406Z,8.50
2018-12-20T14:57:47.680Z,8.50
2018-12-20T15:00:16.001Z,8.60
2018-12-20T15:02:44.277Z,8.50
2018-12-20T15:05:12.518Z,8.50
2018-12-20T15:07:40.883Z,8.50
2018-12-20T15:10:11.017Z,8.50
2018-12-20T15:12:39.302Z,8.50
2018-12-20T15:15:08.761Z,8.40
2018-12-20T15:17:37.226Z,8.40
2018-12-20T15:20:07.165Z,8.40
2018-12-20T15:22:35.445Z,8.40
2018-12-20T15:25:03.743Z,8.40
2018-12-20T15:27:32.017Z,8.40
2018-12-20T15:30:00.297Z,8.40
2018-12-20T15:32:28.578Z,8.30
2018-12-20T15:34:56.875Z,8.40
2018-12-20T15:37:25.308Z,8.30
2018-12-20T15:39:53.581Z,8.30
2018-12-20T15:42:21.936Z,8.30
2018-12-20T15:44:50.281Z,8.20
2018-12-20T15:47:20.585Z,8.20
2018-12-20T15:49:48.865Z,8.20
2018-12-20T15:52:17.283Z,8.20
2018-12-20T15:54:48.005Z,8.20
2018-12-20T15:57:18.553Z,8.10
2018-12-20T15:59:46.973Z,8.10
2018-12-20T16:02:15.253Z,8.10
2018-12-20T16:04:44.765Z,8.10
2018-12-20T16:07:13.115Z,8.10
2018-12-20T16:09:42.357Z,8.00
2018-12-20T16:12:10.644Z,8.00
2018-12-20T16:14:38.902Z,7.90
2018-12-20T16:17:07.249Z,7.90
2018-12-20T16:19:35.542Z,7.90
2018-12-20T16:22:05.676Z,8.00
2018-12-20T16:24:33.958Z,7.90
2018-12-20T16:27:02.362Z,8.00
2018-12-20T16:29:30.604Z,7.90
2018-12-20T16:31:58.936Z,7.90
2018-12-20T16:34:27.187Z,7.90
2018-12-20T16:36:55.483Z,7.90
2018-12-20T16:39:23.707Z,7.90
2018-12-20T16:41:52.003Z,7.90
2018-12-20T16:44:20.272Z,7.90
2018-12-20T16:46:48.589Z,7.90
2018-12-20T16:49:16.951Z,7.90
2018-12-20T16:51:45.273Z,7.90
2018-12-20T16:54:13.509Z,7.90
2018-12-20T16:56:41.739Z,7.90
2018-12-20T16:59:10.023Z,7.80
2018-12-20T17:01:38.312Z,7.80
2018-12-20T17:04:06.624Z,7.90
2018-12-20T17:06:34.918Z,7.90
2018-12-20T17:09:04.389Z,7.90
2018-12-20T17:11:32.649Z,7.90
2018-12-20T17:14:00.918Z,7.90
2018-12-20T17:16:29.224Z,7.90
2018-12-20T17:18:57.481Z,7.90
2018-12-20T17:21:25.819Z,7.90
2018-12-20T17:23:54.118Z,7.90
2018-12-20T17:26:22.452Z,7.90
2018-12-20T17:28:50.748Z,7.90
2018-12-20T17:31:19.045Z,7.90
2018-12-20T17:33:47.334Z,8.00
2018-12-20T17:36:15.575Z,8.00
2018-12-20T17:38:43.895Z,8.00
2018-12-20T17:41:12.199Z,7.90
2018-12-20T17:43:40.458Z,7.90
2018-12-20T17:46:08.775Z,7.80
2018-12-20T17:48:37.023Z,7.80
2018-12-20T17:51:05.315Z,7.80
2018-12-20T17:53:33.545Z,7.90
2018-12-20T17:56:01.877Z,7.90
2018-12-20T17:58:30.208Z,7.90
2018-12-20T18:00:58.499Z,7.80
2018-12-20T18:03:26.824Z,7.80
2018-12-20T18:05:55.186Z,7.80
2018-12-20T18:08:23.451Z,7.80
2018-12-20T18:10:51.703Z,7.90
2018-12-20T18:13:19.999Z,7.90
2018-12-20T18:15:48.359Z,7.90
2018-12-20T18:18:16.724Z,7.80
2018-12-20T18:20:45.057Z,7.80
2018-12-20T18:23:13.347Z,7.80
2018-12-20T18:25:42.461Z,7.80
2018-12-20T18:28:10.764Z,7.90
2018-12-20T18:30:39.107Z,7.90
2018-12-20T18:33:07.480Z,7.90
2018-12-20T18:35:35.806Z,7.90
2018-12-20T18:38:04.187Z,7.90
2018-12-20T18:40:32.522Z,7.90
2018-12-20T18:43:01.877Z,7.90
2018-12-20T18:45:30.189Z,7.90
2018-12-20T18:48:05.101Z,7.90
2018-12-20T18:50:33.402Z,7.90
2018-12-20T18:53:01.861Z,7.90
2018-12-20T18:55:30.193Z,7.90
2018-12-20T18:57:58.526Z,7.90
2018-12-20T19:00:26.853Z,7.90
2018-12-20T19:02:55.146Z,7.90
2018-12-20T19:05:23.537Z,7.90
2018-12-20T19:07:51.824Z,7.90
2018-12-20T19:10:20.134Z,7.90
2018-12-20T19:12:48.434Z,7.90
2018-12-20T19:15:16.771Z,7.90
2018-12-20T19:17:45.066Z,7.90
2018-12-20T19:20:16.333Z,8.00
2018-12-20T19:22:43.646Z,7.90
2018-12-20T19:25:11.979Z,7.90
2018-12-20T19:27:40.242Z,7.90
2018-12-20T19:30:10.299Z,7.90
2018-12-20T19:32:38.653Z,7.90
2018-12-20T19:35:07.251Z,7.90
2018-12-20T19:37:35.501Z,8.00
2018-12-20T19:40:06.603Z,8.00
2018-12-20T19:42:34.858Z,8.00
2018-12-20T19:45:03.162Z,8.00
2018-12-20T19:47:31.579Z,8.00
2018-12-20T19:50:04.857Z,8.00
2018-12-20T19:52:30.155Z,8.00
2018-12-20T19:54:58.525Z,8.00
2018-12-20T19:57:26.839Z,8.10
2018-12-20T19:59:55.175Z,8.10
2018-12-20T20:02:23.606Z,8.10
2018-12-20T20:04:51.928Z,8.00
2018-12-20T20:07:20.261Z,8.00
2018-12-20T20:09:48.537Z,8.00
2018-12-20T20:12:16.799Z,8.10
2018-12-20T20:14:45.161Z,8.10
2018-12-20T20:17:13.530Z,8.10
2018-12-20T20:19:41.906Z,8.10
2018-12-20T20:22:10.278Z,8.10
2018-12-20T20:24:38.586Z,8.10
2018-12-20T20:27:06.944Z,8.20
2018-12-20T20:29:35.207Z,8.30
2018-12-20T20:32:03.610Z,8.20
2018-12-20T20:34:31.939Z,8.20
2018-12-20T20:37:00.244Z,8.20
2018-12-20T20:39:28.787Z,8.20
2018-12-20T20:41:57.069Z,8.20
2018-12-20T20:44:25.474Z,8.20
2018-12-20T20:46:53.778Z,8.20
2018-12-20T20:49:22.086Z,8.30
2018-12-20T20:51:50.537Z,8.30
2018-12-20T20:54:18.832Z,8.20
2018-12-20T20:59:22.382Z,8.20
2018-12-20T21:01:51.735Z,8.30
2018-12-20T21:04:21.616Z,8.30
2018-12-20T21:06:51.279Z,8.30
2018-12-20T21:09:20.127Z,8.40
2018-12-20T21:11:49.594Z,8.30
2018-12-20T21:14:19.155Z,8.30
2018-12-20T21:16:49.392Z,8.30
2018-12-20T21:19:18.122Z,8.30
2018-12-20T21:21:47.300Z,8.30
2018-12-20T21:24:17.186Z,8.30
2018-12-20T21:26:45.871Z,8.30
2018-12-20T21:29:14.780Z,8.40
2018-12-20T21:31:43.443Z,8.40
2018-12-20T21:34:12.128Z,8.40
2018-12-20T21:36:40.790Z,8.40
2018-12-20T21:39:09.526Z,8.50
2018-12-20T21:41:38.251Z,8.40
2018-12-20T21:44:06.950Z,8.40
2018-12-20T21:46:35.556Z,8.30
2018-12-20T21:49:04.327Z,8.40
2018-12-20T21:51:33.004Z,8.40
2018-12-20T21:54:01.714Z,8.50
2018-12-20T21:56:30.454Z,8.50
2018-12-20T21:58:59.057Z,8.40
2018-12-20T22:01:27.722Z,8.40
2018-12-20T22:03:56.361Z,8.40
2018-12-20T22:06:25.058Z,8.40
2018-12-20T22:08:53.692Z,8.50
2018-12-20T22:11:25.079Z,8.60
2018-12-20T22:13:53.976Z,8.60
2018-12-20T22:16:22.936Z,8.60
2018-12-20T22:18:51.599Z,8.50
2018-12-20T22:21:20.326Z,8.50
2018-12-20T22:23:48.980Z,8.40
2018-12-20T22:26:17.671Z,8.50
2018-12-20T22:28:46.459Z,8.40
2018-12-20T22:31:15.243Z,8.50
2018-12-20T22:33:43.870Z,8.60
2018-12-20T22:36:12.504Z,8.70
2018-12-20T22:38:41.099Z,8.60
2018-12-20T22:41:09.745Z,8.50
2018-12-20T22:43:38.343Z,8.50
2018-12-20T22:46:07.143Z,8.50
2018-12-20T22:48:35.778Z,8.50
2018-12-20T22:51:04.526Z,8.50
2018-12-20T22:53:33.243Z,8.70
2018-12-20T22:56:01.898Z,8.60
2018-12-20T22:58:30.552Z,8.50
2018-12-20T23:01:00.912Z,8.40
2018-12-20T23:03:29.597Z,8.40
2018-12-20T23:05:58.267Z,8.70
2018-12-20T23:08:26.920Z,8.60
2018-12-20T23:10:55.554Z,8.50
2018-12-20T23:13:24.206Z,8.30
2018-12-20T23:15:52.924Z,8.20
2018-12-20T23:18:21.599Z,8.20
2018-12-20T23:20:50.219Z,8.20
2018-12-20T23:23:18.854Z,8.10
2018-12-20T23:25:47.568Z,8.10
2018-12-20T23:28:16.308Z,8.10
2018-12-20T23:30:45.016Z,8.00
2018-12-20T23:33:13.691Z,8.00
2018-12-20T23:35:42.328Z,8.00
2018-12-20T23:38:11.093Z,7.90
2018-12-20T23:40:40.483Z,8.00
2018-12-20T23:43:09.099Z,7.90
2018-12-20T23:45:37.772Z,7.90
2018-12-20T23:48:06.479Z,7.90
2018-12-20T23:50:35.137Z,7.90
2018-12-20T23:53:03.875Z,7.90
2018-12-20T23:55:32.569Z,7.90
2018-12-20T23:58:01.310Z,7.90
